Time;durP1;ratioP1;P1;durP2;ratioP2;P2;SDS_P1;SDS_P2;PMS_P1;PMS_P2;Temp;Humidity;BMP_temperature;BMP_pressure;BME280_temperature;BME280_humidity;BME280_pressure;Samples;Min_cycle;Max_cycle;Signal;HPM_P1;HPM_P2
2022/06/27 00:01:32;;;;;;;59.50;3.60;;;;;;;;;;5055258;28;20457;-83
2022/06/27 00:03:59;;;;;;;59.80;3.57;;;;;;;;;;5054973;28;20534;-83
2022/06/27 00:06:27;;;;;;;59.67;3.77;;;;;;;;;;5055321;28;20445;-81
2022/06/27 00:08:54;;;;;;;59.50;3.60;;;;;;;;;;5052962;28;20458;-82
2022/06/27 00:11:21;;;;;;;60.27;3.50;;;;;;;;;;5055184;28;20515;-82
2022/06/27 00:13:49;;;;;;;59.17;3.17;;;;;;;;;;5054757;28;20445;-82
2022/06/27 00:16:17;;;;;;;59.07;2.93;;;;;;;;;;5054895;28;20462;-82
2022/06/27 00:18:45;;;;;;;61.20;2.97;;;;;;;;;;5055010;28;20461;-82
2022/06/27 00:21:13;;;;;;;59.17;3.20;;;;;;;;;;5054989;28;20865;-83
2022/06/27 00:23:40;;;;;;;58.77;2.80;;;;;;;;;;5054594;28;20473;-83
2022/06/27 00:26:08;;;;;;;58.90;2.77;;;;;;;;;;5054971;28;20857;-83
2022/06/27 00:28:35;;;;;;;59.40;3.10;;;;;;;;;;5054793;28;20471;-83
2022/06/27 00:31:02;;;;;;;58.63;2.67;;;;;;;;;;5054834;28;20541;-85
2022/06/27 00:33:31;;;;;;;59.00;2.83;;;;;;;;;;5053858;28;20548;-85
2022/06/27 00:36:00;;;;;;;59.00;2.70;;;;;;;;;;5054166;28;20488;-85
2022/06/27 00:38:28;;;;;;;59.17;2.87;;;;;;;;;;5033811;28;20944;-86
2022/06/27 00:40:57;;;;;;;58.80;2.63;;;;;;;;;;5034342;28;20477;-90
2022/06/27 00:43:24;;;;;;;59.07;2.87;;;;;;;;;;5054052;28;20958;-87
2022/06/27 00:45:52;;;;;;;63.70;2.90;;;;;;;;;;5054161;28;20847;-84
2022/06/27 00:48:19;;;;;;;59.63;2.77;;;;;;;;;;5053910;28;20932;-86
2022/06/27 00:50:46;;;;;;;59.27;2.93;;;;;;;;;;5053850;28;20496;-84
2022/06/27 00:53:15;;;;;;;59.07;2.80;;;;;;;;;;5053825;28;20530;-84
2022/06/27 00:55:42;;;;;;;58.57;2.77;;;;;;;;;;5053928;28;20489;-84
2022/06/27 00:58:11;;;;;;;60.73;3.30;;;;;;;;;;5053806;28;20455;-83
2022/06/27 01:00:39;;;;;;;60.37;3.90;;;;;;;;;;5053843;28;20878;-83
2022/06/27 01:03:06;;;;;;;59.20;2.90;;;;;;;;;;5054408;28;20993;-82
2022/06/27 01:05:33;;;;;;;60.20;3.03;;;;;;;;;;5054113;28;20460;-83
2022/06/27 01:08:01;;;;;;;60.10;3.30;;;;;;;;;;5053902;28;20432;-83
2022/06/27 01:10:30;;;;;;;63.50;3.00;;;;;;;;;;5053220;28;20465;-83
2022/06/27 01:12:57;;;;;;;58.60;2.77;;;;;;;;;;5053184;28;20467;-84
2022/06/27 01:15:25;;;;;;;59.37;3.10;;;;;;;;;;5052319;28;20493;-83
2022/06/27 01:17:53;;;;;;;59.50;2.80;;;;;;;;;;5052971;28;20443;-84
2022/06/27 01:20:20;;;;;;;58.80;2.60;;;;;;;;;;5053031;28;20455;-84
2022/06/27 01:22:49;;;;;;;59.90;3.80;;;;;;;;;;5053016;28;20494;-84
2022/06/27 01:25:18;;;;;;;59.70;3.30;;;;;;;;;;5052182;28;20437;-85
2022/06/27 01:27:45;;;;;;;60.20;2.80;;;;;;;;;;5052826;28;20437;-84
2022/06/27 01:30:13;;;;;;;59.40;2.90;;;;;;;;;;5052887;28;20441;-88
2022/06/27 01:32:42;;;;;;;59.67;3.30;;;;;;;;;;5052851;28;20857;-85
2022/06/27 01:35:10;;;;;;;60.60;2.93;;;;;;;;;;5052816;28;20509;-85
2022/06/27 01:37:37;;;;;;;59.37;2.93;;;;;;;;;;5052675;28;20455;-85
2022/06/27 01:40:06;;;;;;;59.57;2.67;;;;;;;;;;5052789;28;20440;-85
2022/06/27 01:42:34;;;;;;;59.67;3.00;;;;;;;;;;5053161;28;20877;-86
2022/06/27 01:45:01;;;;;;;59.70;2.97;;;;;;;;;;5052986;28;20502;-87
2022/06/27 01:47:29;;;;;;;59.20;2.70;;;;;;;;;;5049177;28;20444;-86
2022/06/27 01:49:57;;;;;;;59.03;2.80;;;;;;;;;;5052590;28;20441;-86
2022/06/27 01:52:25;;;;;;;58.87;2.60;;;;;;;;;;5052700;28;20449;-86
2022/06/27 01:54:52;;;;;;;58.93;3.00;;;;;;;;;;5052655;28;20990;-85
2022/06/27 01:57:22;;;;;;;59.30;2.90;;;;;;;;;;5052627;28;20503;-85
2022/06/27 01:59:50;;;;;;;61.10;2.80;;;;;;;;;;5052689;28;20876;-85
2022/06/27 02:02:18;;;;;;;59.07;2.90;;;;;;;;;;5051943;28;20545;-86
2022/06/27 02:04:46;;;;;;;60.57;2.77;;;;;;;;;;5052510;28;20509;-85
2022/06/27 02:07:13;;;;;;;58.97;2.70;;;;;;;;;;5052244;28;20930;-85
2022/06/27 02:09:40;;;;;;;59.27;2.77;;;;;;;;;;5052351;28;20452;-85
2022/06/27 02:14:57;;;;;;;59.90;3.93;;;;;;;;;;5046644;28;20472;-85
2022/06/27 02:17:25;;;;;;;59.13;2.57;;;;;;;;;;5036909;28;20490;-86
2022/06/27 02:19:52;;;;;;;59.30;2.90;;;;;;;;;;5045333;28;20437;-86
2022/06/27 02:22:19;;;;;;;58.97;2.67;;;;;;;;;;5051354;28;21072;-86
2022/06/27 02:24:46;;;;;;;60.83;3.10;;;;;;;;;;5052459;28;20943;-87
2022/06/27 02:27:14;;;;;;;59.00;2.70;;;;;;;;;;5051746;28;20784;-84
2022/06/27 02:29:41;;;;;;;58.97;2.90;;;;;;;;;;5052208;28;20511;-86
2022/06/27 02:32:11;;;;;;;60.17;3.10;;;;;;;;;;5051958;28;20459;-85
2022/06/27 02:34:38;;;;;;;59.90;3.07;;;;;;;;;;5051857;28;20478;-86
2022/06/27 02:37:05;;;;;;;59.37;3.00;;;;;;;;;;5051850;28;20459;-86
2022/06/27 02:39:35;;;;;;;59.60;3.00;;;;;;;;;;5051839;28;20498;-86
2022/06/27 02:42:03;;;;;;;58.87;2.83;;;;;;;;;;5051780;28;21016;-85
2022/06/27 02:44:31;;;;;;;59.20;2.87;;;;;;;;;;5052054;28;20436;-85
2022/06/27 02:46:59;;;;;;;58.87;2.77;;;;;;;;;;5051570;28;20451;-85
2022/06/27 02:49:27;;;;;;;58.90;2.80;;;;;;;;;;5051800;28;20440;-86
2022/06/27 02:51:57;;;;;;;59.20;2.97;;;;;;;;;;5050790;28;20520;-83
2022/06/27 02:54:28;;;;;;;58.37;2.77;;;;;;;;;;5052372;28;20475;-83
2022/06/27 02:56:59;;;;;;;58.77;3.30;;;;;;;;;;5052654;28;20834;-84
2022/06/27 02:59:29;;;;;;;59.00;2.80;;;;;;;;;;5051961;28;20423;-84
2022/06/27 03:01:58;;;;;;;58.77;3.07;;;;;;;;;;5051593;28;20529;-83
2022/06/27 03:04:25;;;;;;;58.80;2.80;;;;;;;;;;5051947;28;20510;-83
2022/06/27 03:06:54;;;;;;;58.90;2.80;;;;;;;;;;5051767;28;20498;-83
2022/06/27 03:09:21;;;;;;;59.40;3.07;;;;;;;;;;5051494;28;20497;-84
2022/06/27 03:11:48;;;;;;;59.30;3.00;;;;;;;;;;5051742;28;21046;-83
2022/06/27 03:14:16;;;;;;;58.70;2.80;;;;;;;;;;5051749;28;20500;-84
2022/06/27 03:16:44;;;;;;;59.20;3.33;;;;;;;;;;5051723;28;20443;-83
2022/06/27 03:19:11;;;;;;;58.90;3.00;;;;;;;;;;5052108;28;20501;-83
2022/06/27 03:21:39;;;;;;;58.87;2.97;;;;;;;;;;5052580;28;20618;-83
2022/06/27 03:24:08;;;;;;;58.90;3.10;;;;;;;;;;5050521;28;20796;-83
2022/06/27 03:26:35;;;;;;;59.30;2.97;;;;;;;;;;5052103;28;20448;-83
2022/06/27 03:29:03;;;;;;;58.93;2.90;;;;;;;;;;5051680;28;20452;-84
2022/06/27 03:31:30;;;;;;;58.87;2.90;;;;;;;;;;5051723;28;20473;-84
2022/06/27 03:33:58;;;;;;;59.00;3.10;;;;;;;;;;5051433;28;20472;-84
2022/06/27 03:36:25;;;;;;;58.67;2.87;;;;;;;;;;5051613;28;20497;-84
2022/06/27 03:38:52;;;;;;;58.60;2.70;;;;;;;;;;5051414;28;20452;-85
2022/06/27 03:41:21;;;;;;;58.90;2.80;;;;;;;;;;5051585;28;20554;-84
2022/06/27 03:43:48;;;;;;;58.63;2.80;;;;;;;;;;5051515;28;20989;-84
2022/06/27 03:46:16;;;;;;;58.70;2.67;;;;;;;;;;5051192;28;20808;-85
2022/06/27 03:51:28;;;;;;;58.17;2.90;;;;;;;;;;5055117;28;20439;-84
2022/06/27 03:53:55;;;;;;;58.67;3.10;;;;;;;;;;5054822;28;21047;-83
2022/06/27 03:56:24;;;;;;;58.90;2.87;;;;;;;;;;5053915;28;20443;-83
2022/06/27 03:58:51;;;;;;;58.60;2.60;;;;;;;;;;5054872;28;20975;-83
2022/06/27 04:01:18;;;;;;;58.53;2.73;;;;;;;;;;5054536;28;20461;-83
2022/06/27 04:03:45;;;;;;;59.03;3.27;;;;;;;;;;5054974;28;20452;-84
2022/06/27 04:06:13;;;;;;;59.00;3.20;;;;;;;;;;5055007;28;20436;-83
2022/06/27 04:08:40;;;;;;;58.37;2.70;;;;;;;;;;5055148;28;21017;-83
2022/06/27 04:11:07;;;;;;;59.00;3.00;;;;;;;;;;5054744;28;20474;-83
2022/06/27 04:13:36;;;;;;;59.40;2.80;;;;;;;;;;5054905;28;20810;-83
2022/06/27 04:16:03;;;;;;;59.00;3.10;;;;;;;;;;5054758;28;20436;-83
2022/06/27 04:18:31;;;;;;;59.60;3.13;;;;;;;;;;5054624;28;20435;-83
2022/06/27 04:20:58;;;;;;;58.33;2.90;;;;;;;;;;5054539;28;20464;-83
2022/06/27 04:23:25;;;;;;;59.17;2.77;;;;;;;;;;5054717;28;20463;-83
2022/06/27 04:25:53;;;;;;;58.70;3.03;;;;;;;;;;5054798;28;20447;-84
2022/06/27 04:28:20;;;;;;;59.50;2.97;;;;;;;;;;5053962;28;20440;-84
2022/06/27 04:30:49;;;;;;;58.87;2.70;;;;;;;;;;5078896;28;20441;-83
2022/06/27 04:33:17;;;;;;;58.30;2.83;;;;;;;;;;5077596;28;20421;-84
2022/06/27 04:35:46;;;;;;;62.70;3.37;;;;;;;;;;5077360;28;20463;-83
2022/06/27 04:38:13;;;;;;;58.13;2.50;;;;;;;;;;5067910;28;20489;-83
2022/06/27 04:40:42;;;;;;;63.70;3.10;;;;;;;;;;5053321;28;20492;-83
2022/06/27 04:43:09;;;;;;;58.90;3.23;;;;;;;;;;5054336;28;20799;-83
2022/06/27 04:45:37;;;;;;;58.53;3.10;;;;;;;;;;5054320;28;20912;-84
2022/06/27 04:48:09;;;;;;;59.03;3.30;;;;;;;;;;5054033;28;20858;-83
2022/06/27 04:50:37;;;;;;;58.80;3.00;;;;;;;;;;5054089;28;20517;-84
2022/06/27 04:53:04;;;;;;;58.87;3.20;;;;;;;;;;5053812;28;20451;-83
2022/06/27 04:55:32;;;;;;;58.40;3.03;;;;;;;;;;5054008;28;20483;-83
2022/06/27 04:57:59;;;;;;;59.07;3.17;;;;;;;;;;5034505;28;20445;-83
2022/06/27 05:00:27;;;;;;;59.20;3.20;;;;;;;;;;5054078;28;20458;-83
2022/06/27 05:02:54;;;;;;;59.00;2.70;;;;;;;;;;5054394;28;20517;-83
2022/06/27 05:05:22;;;;;;;60.80;3.20;;;;;;;;;;5054345;28;20907;-84
2022/06/27 05:07:51;;;;;;;59.67;3.17;;;;;;;;;;5054415;28;20436;-83
2022/06/27 05:10:19;;;;;;;59.30;3.07;;;;;;;;;;5054379;28;20463;-83
2022/06/27 05:12:46;;;;;;;59.17;3.20;;;;;;;;;;5054151;28;20509;-83
2022/06/27 05:15:13;;;;;;;58.93;3.03;;;;;;;;;;5054141;28;20541;-84
2022/06/27 05:17:43;;;;;;;59.30;3.00;;;;;;;;;;5053913;28;20494;-83
2022/06/27 05:20:10;;;;;;;58.67;3.00;;;;;;;;;;5054106;28;20472;-83
2022/06/27 05:22:39;;;;;;;59.70;3.17;;;;;;;;;;5053740;28;20437;-83
2022/06/27 05:25:07;;;;;;;59.53;3.33;;;;;;;;;;5053535;28;20818;-83
2022/06/27 05:27:35;;;;;;;58.67;3.10;;;;;;;;;;5052889;28;20476;-84
2022/06/27 05:30:03;;;;;;;58.60;2.50;;;;;;;;;;5051655;28;20493;-85
2022/06/27 05:32:30;;;;;;;58.97;3.40;;;;;;;;;;5053350;28;21128;-85
2022/06/27 05:34:57;;;;;;;58.57;3.07;;;;;;;;;;5053196;28;21146;-86
2022/06/27 05:37:25;;;;;;;58.90;3.07;;;;;;;;;;5052810;28;20837;-87
2022/06/27 05:39:54;;;;;;;58.70;3.10;;;;;;;;;;5053282;28;20518;-85
2022/06/27 05:42:21;;;;;;;59.00;2.83;;;;;;;;;;5053021;28;20551;-82
2022/06/27 05:44:48;;;;;;;59.10;3.10;;;;;;;;;;5053033;28;20414;-85
2022/06/27 05:47:16;;;;;;;59.10;2.70;;;;;;;;;;5052607;28;20443;-85
2022/06/27 05:49:44;;;;;;;58.73;2.80;;;;;;;;;;5052304;28;20469;-85
2022/06/27 05:52:11;;;;;;;59.97;3.23;;;;;;;;;;5052569;28;20469;-85
2022/06/27 05:54:39;;;;;;;58.80;2.97;;;;;;;;;;5052686;28;20482;-89
2022/06/27 05:57:08;;;;;;;59.70;3.70;;;;;;;;;;5052904;28;20931;-84
2022/06/27 05:59:36;;;;;;;59.80;3.30;;;;;;;;;;5052733;28;20445;-85
2022/06/27 06:02:03;;;;;;;60.67;3.13;;;;;;;;;;5051384;28;20525;-84
2022/06/27 06:04:30;;;;;;;59.10;3.13;;;;;;;;;;5052537;28;20506;-84
2022/06/27 06:06:58;;;;;;;58.60;2.90;;;;;;;;;;5052438;28;20832;-84
2022/06/27 06:09:25;;;;;;;60.47;3.07;;;;;;;;;;5052558;28;20443;-86
2022/06/27 06:11:53;;;;;;;58.87;2.93;;;;;;;;;;5051830;28;20464;-84
2022/06/27 06:14:22;;;;;;;58.47;3.03;;;;;;;;;;5052423;28;20443;-84
2022/06/27 06:16:49;;;;;;;60.27;3.60;;;;;;;;;;5052011;28;21242;-84
2022/06/27 06:19:17;;;;;;;58.20;3.27;;;;;;;;;;5047159;28;20500;-84
2022/06/27 06:21:45;;;;;;;58.87;2.70;;;;;;;;;;5053568;28;20793;-84
2022/06/27 06:24:12;;;;;;;58.87;2.93;;;;;;;;;;5052338;28;20469;-82
2022/06/27 06:26:41;;;;;;;58.40;2.87;;;;;;;;;;5042517;28;21016;-85
2022/06/27 06:29:14;;;;;;;58.97;3.00;;;;;;;;;;5033535;28;20479;-84
2022/06/27 06:31:44;;;;;;;58.90;2.77;;;;;;;;;;5035371;28;20471;-83
2022/06/27 06:34:12;;;;;;;58.77;3.00;;;;;;;;;;5040050;28;20880;-83
2022/06/27 06:36:40;;;;;;;62.03;3.07;;;;;;;;;;5054774;28;20474;-83
2022/06/27 06:39:08;;;;;;;60.60;3.10;;;;;;;;;;5055788;28;20490;-82
2022/06/27 06:41:35;;;;;;;58.63;2.83;;;;;;;;;;5054792;28;20473;-82
2022/06/27 06:44:03;;;;;;;59.10;2.93;;;;;;;;;;5055132;28;20942;-82
2022/06/27 06:46:31;;;;;;;58.50;2.80;;;;;;;;;;5054213;28;20451;-83
2022/06/27 06:49:02;;;;;;;59.20;2.70;;;;;;;;;;5054786;28;20527;-86
2022/06/27 06:51:31;;;;;;;58.87;2.60;;;;;;;;;;5053832;28;20463;-82
2022/06/27 06:53:58;;;;;;;58.53;2.47;;;;;;;;;;5054127;28;20444;-84
2022/06/27 06:56:26;;;;;;;59.50;2.90;;;;;;;;;;5054408;28;20476;-82
2022/06/27 06:58:53;;;;;;;58.77;2.87;;;;;;;;;;5052845;28;20435;-83
2022/06/27 07:01:20;;;;;;;58.80;3.23;;;;;;;;;;5053363;28;20525;-82
2022/06/27 07:03:49;;;;;;;58.97;2.70;;;;;;;;;;5052906;28;21001;-84
2022/06/27 07:06:24;;;;;;;59.20;2.50;;;;;;;;;;5051166;28;20444;-84
2022/06/27 07:08:53;;;;;;;59.00;2.47;;;;;;;;;;5052453;28;20462;-84
2022/06/27 07:11:21;;;;;;;59.80;2.73;;;;;;;;;;5051989;28;20468;-84
2022/06/27 07:13:49;;;;;;;58.10;2.57;;;;;;;;;;5051932;28;20444;-83
2022/06/27 07:16:18;;;;;;;58.40;2.50;;;;;;;;;;5051720;28;20472;-83
2022/06/27 07:18:46;;;;;;;58.57;2.90;;;;;;;;;;5051733;28;20460;-83
2022/06/27 07:21:14;;;;;;;58.50;2.40;;;;;;;;;;5052159;28;20555;-85
2022/06/27 07:23:42;;;;;;;58.67;2.60;;;;;;;;;;5053081;28;20451;-84
2022/06/27 07:26:10;;;;;;;58.70;2.40;;;;;;;;;;5055571;28;20463;-87
2022/06/27 07:28:38;;;;;;;58.50;2.50;;;;;;;;;;5055277;28;20440;-86
2022/06/27 07:31:08;;;;;;;58.47;2.20;;;;;;;;;;5055346;28;20500;-84
2022/06/27 07:33:36;;;;;;;58.37;2.50;;;;;;;;;;5055614;28;20792;-86
2022/06/27 07:36:05;;;;;;;58.80;2.53;;;;;;;;;;5055122;28;20471;-85
2022/06/27 07:38:38;;;;;;;58.70;2.50;;;;;;;;;;5053991;28;21001;-86
2022/06/27 07:41:07;;;;;;;58.17;2.30;;;;;;;;;;5055404;28;20500;-85
2022/06/27 07:43:34;;;;;;;59.10;2.87;;;;;;;;;;5055565;28;20486;-86
2022/06/27 07:46:02;;;;;;;58.60;2.40;;;;;;;;;;5055410;28;20441;-87
2022/06/27 07:48:29;;;;;;;58.20;2.50;;;;;;;;;;5055181;28;20939;-86
2022/06/27 07:50:57;;;;;;;58.27;2.50;;;;;;;;;;5055306;28;20526;-85
2022/06/27 07:53:25;;;;;;;58.40;2.50;;;;;;;;;;5049181;28;20923;-86
2022/06/27 07:55:54;;;;;;;61.27;2.73;;;;;;;;;;5054796;28;20484;-86
2022/06/27 07:58:30;;;;;;;58.70;2.70;;;;;;;;;;5054819;28;20962;-87
2022/06/27 08:00:58;;;;;;;58.90;2.80;;;;;;;;;;5054955;28;20463;-88
2022/06/27 08:03:39;;;;;;;58.00;2.50;;;;;;;;;;5055361;28;20806;-87
2022/06/27 08:06:08;;;;;;;59.00;2.87;;;;;;;;;;5055321;28;20440;-86
2022/06/27 08:08:36;;;;;;;58.70;3.00;;;;;;;;;;5053869;28;20498;-86
2022/06/27 08:11:04;;;;;;;60.13;3.10;;;;;;;;;;5055745;28;20468;-87
2022/06/27 08:13:33;;;;;;;58.77;2.83;;;;;;;;;;5055597;28;20491;-88
2022/06/27 08:16:01;;;;;;;58.70;3.10;;;;;;;;;;5054633;28;20472;-88
2022/06/27 08:18:31;;;;;;;58.30;2.60;;;;;;;;;;5054853;28;20448;-86
2022/06/27 08:20:58;;;;;;;59.00;2.50;;;;;;;;;;5055095;28;20463;-86
2022/06/27 08:23:26;;;;;;;58.67;2.60;;;;;;;;;;5054456;28;20464;-86
2022/06/27 08:25:53;;;;;;;58.27;2.77;;;;;;;;;;5054557;28;20543;-88
2022/06/27 08:28:22;;;;;;;59.10;3.00;;;;;;;;;;5054402;28;20443;-86
2022/06/27 08:30:52;;;;;;;58.50;2.53;;;;;;;;;;5054801;28;20504;-88
2022/06/27 08:33:20;;;;;;;58.63;2.70;;;;;;;;;;5055018;28;20514;-86
2022/06/27 08:35:48;;;;;;;58.40;2.93;;;;;;;;;;5054197;28;20476;-90
2022/06/27 08:38:19;;;;;;;58.40;2.40;;;;;;;;;;5054404;28;20578;-89
2022/06/27 08:40:47;;;;;;;58.70;2.50;;;;;;;;;;5054107;28;20809;-88
2022/06/27 08:43:15;;;;;;;58.73;2.80;;;;;;;;;;5054583;28;20441;-89
2022/06/27 08:45:44;;;;;;;58.50;2.90;;;;;;;;;;5054858;28;20460;-88
2022/06/27 08:48:13;;;;;;;58.70;2.80;;;;;;;;;;5054773;28;20447;-89
2022/06/27 08:50:41;;;;;;;58.40;2.70;;;;;;;;;;5054594;28;20472;-89
2022/06/27 08:53:08;;;;;;;58.43;2.60;;;;;;;;;;5048304;28;20456;-89
2022/06/27 08:55:36;;;;;;;58.27;2.70;;;;;;;;;;5038751;28;20492;-88
2022/06/27 08:58:05;;;;;;;58.37;3.00;;;;;;;;;;5034241;28;20507;-88
2022/06/27 09:00:34;;;;;;;59.10;2.70;;;;;;;;;;5034819;28;20461;-88
2022/06/27 09:03:01;;;;;;;58.90;2.73;;;;;;;;;;5035225;28;20445;-90
2022/06/27 09:05:31;;;;;;;59.10;3.10;;;;;;;;;;5040088;28;20438;-89
2022/06/27 09:07:59;;;;;;;58.47;3.10;;;;;;;;;;5058071;28;20521;-89
2022/06/27 09:10:30;;;;;;;59.57;2.60;;;;;;;;;;5057740;28;20492;-88
2022/06/27 09:12:59;;;;;;;59.03;3.07;;;;;;;;;;5072375;28;20451;-87
2022/06/27 09:15:29;;;;;;;57.87;2.50;;;;;;;;;;5062616;28;20448;-89
2022/06/27 09:18:05;;;;;;;58.47;2.70;;;;;;;;;;5053977;28;20444;-86
2022/06/27 09:20:47;;;;;;;58.40;3.03;;;;;;;;;;5051511;28;20490;-88
2022/06/27 09:23:47;;;;;;;58.37;2.60;;;;;;;;;;5035459;28;20441;-88
2022/06/27 09:26:16;;;;;;;58.67;2.77;;;;;;;;;;5053576;28;20819;-91
2022/06/27 09:28:47;;;;;;;58.30;2.70;;;;;;;;;;5053359;28;20811;-88
2022/06/27 09:31:30;;;;;;;58.87;2.87;;;;;;;;;;5053752;28;20470;-87
2022/06/27 09:34:02;;;;;;;59.77;2.93;;;;;;;;;;5053963;28;20436;-86
2022/06/27 09:36:31;;;;;;;58.13;2.80;;;;;;;;;;5053393;28;20486;-88
2022/06/27 09:38:59;;;;;;;61.57;2.70;;;;;;;;;;5042099;28;20481;-85
2022/06/27 09:41:29;;;;;;;58.40;2.83;;;;;;;;;;5039411;28;20476;-85
2022/06/27 09:44:00;;;;;;;58.27;3.27;;;;;;;;;;5051280;28;20947;-88
2022/06/27 09:46:29;;;;;;;60.93;2.87;;;;;;;;;;5052221;28;20421;-85
2022/06/27 09:48:58;;;;;;;58.10;2.60;;;;;;;;;;5052608;28;20536;-86
2022/06/27 09:51:27;;;;;;;58.50;2.70;;;;;;;;;;5053034;28;20468;-85
2022/06/27 09:54:00;;;;;;;58.50;2.80;;;;;;;;;;5052851;28;20480;-85
2022/06/27 09:56:29;;;;;;;58.30;2.80;;;;;;;;;;5052901;28;20469;-87
2022/06/27 09:58:56;;;;;;;59.10;3.37;;;;;;;;;;5041800;28;20455;-87
2022/06/27 10:01:24;;;;;;;58.40;2.87;;;;;;;;;;5045818;28;20559;-86
2022/06/27 10:03:52;;;;;;;58.60;3.00;;;;;;;;;;5045406;28;20495;-86
2022/06/27 10:06:19;;;;;;;58.80;2.90;;;;;;;;;;5052743;28;20445;-87
2022/06/27 10:08:48;;;;;;;58.70;3.10;;;;;;;;;;5052474;28;20462;-86
2022/06/27 10:11:16;;;;;;;58.20;2.60;;;;;;;;;;5052677;28;20453;-86
2022/06/27 10:13:44;;;;;;;58.90;2.90;;;;;;;;;;5052479;28;20453;-85
2022/06/27 10:16:13;;;;;;;58.97;2.90;;;;;;;;;;5052571;28;20489;-85
2022/06/27 10:18:53;;;;;;;58.23;2.70;;;;;;;;;;5052572;28;20536;-85
2022/06/27 10:21:26;;;;;;;58.67;2.70;;;;;;;;;;5052370;28;21045;-84
2022/06/27 10:24:08;;;;;;;58.90;2.67;;;;;;;;;;5052829;28;20533;-85
2022/06/27 10:26:43;;;;;;;58.90;2.67;;;;;;;;;;5051977;28;20438;-85
2022/06/27 10:29:28;;;;;;;58.07;2.67;;;;;;;;;;5052295;28;20441;-84
2022/06/27 10:31:56;;;;;;;59.20;2.93;;;;;;;;;;5052250;28;20458;-85
2022/06/27 10:34:46;;;;;;;58.37;2.70;;;;;;;;;;5052379;28;20490;-85
2022/06/27 10:37:32;;;;;;;58.77;2.90;;;;;;;;;;5050152;28;20483;-84
2022/06/27 10:40:15;;;;;;;58.70;2.70;;;;;;;;;;5052024;28;20437;-85
2022/06/27 10:42:48;;;;;;;58.77;2.93;;;;;;;;;;5051916;28;20499;-85
2022/06/27 10:45:23;;;;;;;58.27;2.73;;;;;;;;;;5052115;28;20413;-85
2022/06/27 10:47:51;;;;;;;58.47;2.67;;;;;;;;;;5052421;28;20812;-84
2022/06/27 10:50:20;;;;;;;58.47;2.70;;;;;;;;;;5048559;28;20459;-84
2022/06/27 10:52:47;;;;;;;60.60;3.00;;;;;;;;;;5033428;28;20455;-84
2022/06/27 10:55:22;;;;;;;59.53;2.80;;;;;;;;;;5032174;28;20929;-83
2022/06/27 10:57:51;;;;;;;64.40;3.10;;;;;;;;;;5051696;28;20489;-83
2022/06/27 11:00:37;;;;;;;58.40;2.70;;;;;;;;;;5056500;28;20506;-87
2022/06/27 11:03:04;;;;;;;58.07;2.47;;;;;;;;;;5054382;28;20432;-84
2022/06/27 11:05:33;;;;;;;58.50;2.60;;;;;;;;;;5055915;28;20494;-84
2022/06/27 11:08:00;;;;;;;58.47;2.47;;;;;;;;;;5055577;28;20468;-84
2022/06/27 11:10:28;;;;;;;58.27;2.50;;;;;;;;;;5055954;28;20472;-82
2022/06/27 11:12:56;;;;;;;58.07;2.60;;;;;;;;;;5055886;28;20436;-83
2022/06/27 11:15:25;;;;;;;58.00;2.40;;;;;;;;;;5055539;28;20498;-83
2022/06/27 11:17:53;;;;;;;57.90;2.67;;;;;;;;;;5055338;28;20476;-84
2022/06/27 11:20:23;;;;;;;58.30;2.40;;;;;;;;;;5055720;28;20811;-84
2022/06/27 11:22:52;;;;;;;58.00;2.40;;;;;;;;;;5055838;28;20433;-82
2022/06/27 11:25:23;;;;;;;58.30;2.30;;;;;;;;;;5055455;28;20519;-82
2022/06/27 11:27:54;;;;;;;58.80;2.60;;;;;;;;;;5055265;28;20444;-83
2022/06/27 11:33:31;;;;;;;57.93;2.10;;;;;;;;;;5031604;28;20433;-86
2022/06/27 11:36:00;;;;;;;57.97;2.40;;;;;;;;;;5050038;28;20448;-85
2022/06/27 11:38:28;;;;;;;58.50;2.43;;;;;;;;;;5054884;28;20459;-85
2022/06/27 11:41:06;;;;;;;61.27;2.60;;;;;;;;;;5055304;28;20505;-84
2022/06/27 11:43:52;;;;;;;59.70;3.03;;;;;;;;;;5055259;28;20441;-85
2022/06/27 11:46:29;;;;;;;61.07;3.03;;;;;;;;;;5055188;28;20895;-82
2022/06/27 11:48:57;;;;;;;59.03;2.90;;;;;;;;;;5055070;28;20945;-83
2022/06/27 11:51:29;;;;;;;58.77;2.87;;;;;;;;;;5055287;28;20465;-82
2022/06/27 11:53:57;;;;;;;58.67;2.77;;;;;;;;;;5055192;28;20502;-83
2022/06/27 11:56:25;;;;;;;58.77;3.00;;;;;;;;;;5054973;28;20480;-82
2022/06/27 11:58:53;;;;;;;59.87;2.93;;;;;;;;;;5048234;28;20887;-81
2022/06/27 12:01:20;;;;;;;59.93;2.93;;;;;;;;;;5034694;28;20469;-81
2022/06/27 12:04:10;;;;;;;58.93;3.10;;;;;;;;;;5034749;28;20807;-82
2022/06/27 12:06:48;;;;;;;58.97;3.10;;;;;;;;;;5053447;28;20445;-83
2022/06/27 12:09:15;;;;;;;58.37;2.80;;;;;;;;;;5054032;28;20859;-81
2022/06/27 12:11:57;;;;;;;58.87;3.00;;;;;;;;;;5054765;28;20874;-82
2022/06/27 12:14:25;;;;;;;59.73;3.20;;;;;;;;;;5053513;28;20541;-83
2022/06/27 12:16:54;;;;;;;59.27;3.43;;;;;;;;;;5050632;28;20880;-83
2022/06/27 12:19:23;;;;;;;59.87;3.47;;;;;;;;;;5040933;28;20446;-84
2022/06/27 12:21:50;;;;;;;58.77;3.00;;;;;;;;;;5034348;28;20470;-85
2022/06/27 12:24:17;;;;;;;59.47;3.00;;;;;;;;;;5038416;28;20487;-83
2022/06/27 12:26:45;;;;;;;59.17;3.13;;;;;;;;;;5034570;28;20442;-84
2022/06/27 12:32:14;;;;;;;59.00;3.00;;;;;;;;;;5017797;28;20600;-86
2022/06/27 12:34:43;;;;;;;59.57;3.57;;;;;;;;;;5017329;28;20438;-84
2022/06/27 12:37:10;;;;;;;58.97;3.60;;;;;;;;;;5030066;28;21035;-83
2022/06/27 12:39:37;;;;;;;61.40;3.47;;;;;;;;;;5032180;28;20441;-82
2022/06/27 12:42:05;;;;;;;59.30;3.40;;;;;;;;;;5031936;28;20458;-83
2022/06/27 12:44:32;;;;;;;59.10;3.60;;;;;;;;;;5032156;28;21014;-83
2022/06/27 12:46:59;;;;;;;58.97;3.10;;;;;;;;;;5032249;28;20806;-85
2022/06/27 12:49:27;;;;;;;60.30;3.00;;;;;;;;;;5031666;28;20815;-86
2022/06/27 12:51:56;;;;;;;59.60;3.50;;;;;;;;;;5031765;28;20898;-84
2022/06/27 12:54:23;;;;;;;60.20;3.40;;;;;;;;;;5031545;28;20447;-83
2022/06/27 12:56:50;;;;;;;61.10;3.37;;;;;;;;;;5031711;28;20824;-84
2022/06/27 12:59:18;;;;;;;59.60;3.00;;;;;;;;;;5031530;28;20472;-84
2022/06/27 13:01:45;;;;;;;59.37;3.10;;;;;;;;;;5033196;28;20461;-84
2022/06/27 13:04:12;;;;;;;59.33;3.27;;;;;;;;;;5053681;28;20514;-85
2022/06/27 13:06:39;;;;;;;59.37;3.27;;;;;;;;;;5053659;28;20436;-85
2022/06/27 13:09:08;;;;;;;59.27;3.13;;;;;;;;;;5051982;28;20486;-84
2022/06/27 13:11:35;;;;;;;59.20;3.10;;;;;;;;;;5053807;28;20522;-85
2022/06/27 13:14:03;;;;;;;59.33;3.63;;;;;;;;;;5053842;28;20440;-85
2022/06/27 13:16:30;;;;;;;59.10;3.03;;;;;;;;;;5053553;28;20490;-84
2022/06/27 13:18:57;;;;;;;60.13;2.80;;;;;;;;;;5053503;28;20795;-83
2022/06/27 13:21:24;;;;;;;58.70;2.70;;;;;;;;;;5052645;28;20456;-85
2022/06/27 13:23:52;;;;;;;59.30;3.20;;;;;;;;;;5053733;28;20432;-84
2022/06/27 13:26:20;;;;;;;58.50;2.50;;;;;;;;;;5053582;28;20447;-85
2022/06/27 13:28:48;;;;;;;58.67;2.80;;;;;;;;;;5053230;28;20437;-84
2022/06/27 13:31:15;;;;;;;58.27;2.83;;;;;;;;;;5053657;28;20456;-84
2022/06/27 13:33:42;;;;;;;58.37;2.90;;;;;;;;;;5053682;28;20501;-85
2022/06/27 13:36:09;;;;;;;58.90;3.37;;;;;;;;;;5053776;28;20441;-85
2022/06/27 13:38:37;;;;;;;59.20;3.10;;;;;;;;;;5059147;28;20526;-85
2022/06/27 13:41:04;;;;;;;62.07;3.20;;;;;;;;;;5071869;28;20472;-85
2022/06/27 13:43:33;;;;;;;59.50;3.00;;;;;;;;;;5069753;28;20524;-84
2022/06/27 13:46:00;;;;;;;58.60;2.97;;;;;;;;;;5054221;28;20490;-85
2022/06/27 13:48:28;;;;;;;58.67;2.70;;;;;;;;;;5052789;28;20456;-84
2022/06/27 13:50:55;;;;;;;58.87;2.80;;;;;;;;;;5053327;28;20978;-84
2022/06/27 13:53:23;;;;;;;58.80;3.20;;;;;;;;;;5053341;28;20771;-84
2022/06/27 13:55:50;;;;;;;58.30;2.97;;;;;;;;;;5053073;28;20437;-87
2022/06/27 13:58:17;;;;;;;58.67;2.80;;;;;;;;;;5050773;28;20538;-83
2022/06/27 14:00:46;;;;;;;58.67;3.00;;;;;;;;;;5042446;28;20552;-86
2022/06/27 14:03:13;;;;;;;59.10;2.70;;;;;;;;;;5050631;28;20506;-84
2022/06/27 14:05:40;;;;;;;58.57;2.57;;;;;;;;;;5052692;28;20448;-84
2022/06/27 14:08:07;;;;;;;59.67;3.03;;;;;;;;;;5052418;28;20440;-84
2022/06/27 14:10:34;;;;;;;58.50;2.77;;;;;;;;;;5051809;28;20488;-85
2022/06/27 14:13:21;;;;;;;58.77;2.47;;;;;;;;;;5052514;28;20869;-84
2022/06/27 14:15:50;;;;;;;58.57;2.60;;;;;;;;;;5052562;28;20729;-85
2022/06/27 14:18:17;;;;;;;59.80;3.40;;;;;;;;;;5052528;28;20480;-85
2022/06/27 14:20:44;;;;;;;58.30;2.90;;;;;;;;;;5052706;28;20885;-84
2022/06/27 14:23:12;;;;;;;58.47;2.90;;;;;;;;;;5052313;28;20483;-84
2022/06/27 14:25:39;;;;;;;58.23;2.40;;;;;;;;;;5052234;28;20433;-86
2022/06/27 14:28:06;;;;;;;58.77;3.30;;;;;;;;;;5051872;28;20440;-84
2022/06/27 14:30:34;;;;;;;58.60;3.00;;;;;;;;;;5052334;28;20514;-84
2022/06/27 14:33:02;;;;;;;60.70;2.97;;;;;;;;;;5051675;28;20440;-85
2022/06/27 14:35:30;;;;;;;60.93;3.17;;;;;;;;;;5052302;28;20444;-84
2022/06/27 14:37:57;;;;;;;58.90;2.80;;;;;;;;;;5051734;28;20480;-84
2022/06/27 14:40:24;;;;;;;58.17;2.70;;;;;;;;;;5051861;28;20448;-84
2022/06/27 14:42:52;;;;;;;59.97;3.40;;;;;;;;;;5050513;28;20436;-84
2022/06/27 14:45:19;;;;;;;58.40;3.00;;;;;;;;;;5051835;28;20429;-83
2022/06/27 14:47:46;;;;;;;60.03;3.40;;;;;;;;;;5051766;28;20448;-83
2022/06/27 14:50:15;;;;;;;58.80;3.07;;;;;;;;;;5052001;28;20482;-85
2022/06/27 14:52:42;;;;;;;59.57;2.90;;;;;;;;;;5051980;28;20441;-84